Flight Track Log - Related Links

Times and Time Zones

All times are in EDT time to prevent confusion due to time zone crossing. See the SKW7427 flight status page for this flight to view local times or setup timezone preferences in your user account.

Time Position Orientation Groundspeed Altitude Reporting Facility
EDT Latitude Longitude Course Direction KTS MPH feet Rate Location/Type
Fri 05:33:35 PM 40.8172 -111.9786 37° Northeast 182 209 5,000  Level Salt Center
Fri 05:34:30 PM 40.8642 -111.9881 351° North 199 229 6,400 1,517 Climbing Salt Center
Fri 05:35:02 PM 40.8989 -111.9914 356° North 217 250 7,200 1,723 Climbing Salt Center
Fri 05:36:00 PM 41.1141 -111.9456 48° Northeast  Level FlightAware
Fri 05:36:04 PM 40.9700 -112.0003 355° North 252 290 9,100  Level Salt Center
Fri 05:37:00 PM 41.1979 -111.8360 43° Northeast  Level FlightAware
Fri 05:37:06 PM 41.0469 -112.0100 355° North 273 314 10,600  Level Salt Center
Fri 05:38:00 PM 41.3000 -111.7666 37° Northeast  Level FlightAware
Fri 05:38:08 PM 41.1172 -111.9656 25° Northeast 295 339 12,200  Level Salt Center
Fri 05:39:10 PM 41.1756 -111.8831 47° Northeast 301 346 13,900 1,632 Climbing Salt Center
Fri 05:40:13 PM 41.2444 -111.8111 38° Northeast 316 364 15,600 1,392 Climbing Salt Center
Fri 05:41:15 PM 41.3261 -111.7550 27° Northeast 331 381 16,800 1,113 Climbing Salt Center
Fri 05:42:17 PM 41.4211 -111.7489 North 343 395 17,900 1,210 Climbing Salt Center
Fri 05:43:19 PM 41.5383 -111.7444 North 352 405 19,300 1,161 Climbing Salt Center
Fri 05:44:21 PM 41.6372 -111.7678 350° North 362 417 20,300 919 Climbing Salt Center
Fri 05:45:23 PM 41.7400 -111.7883 352° North 373 429 21,200 871 Climbing Salt Center
Fri 05:46:25 PM 41.8447 -111.8131 350° North 381 438 22,100 871 Climbing Salt Center
Fri 05:47:27 PM 41.9447 -111.8658 339° North 388 447 23,000 919 Climbing Salt Center
Fri 05:48:29 PM 42.0661 -111.9247 340° North 387 445 24,000 774 Climbing Salt Center
Fri 05:49:31 PM 42.1697 -111.9686 343° North 390 449 24,600 532 Climbing Salt Center
Fri 05:50:33 PM 42.2806 -111.9858 353° North 401 461 25,100 484 Climbing Salt Center
Fri 05:51:35 PM 42.3919 -112.0078 352° North 403 464 25,600 484 Climbing Salt Center
Fri 05:52:37 PM 42.5050 -112.0300 352° North 410 472 26,100 532 Climbing Salt Center
Fri 05:53:39 PM 42.6181 -112.0514 352° North 412 474 26,700 532 Climbing Salt Center
Fri 05:54:41 PM 42.7522 -112.0772 352° North 415 478 27,200 484 Climbing Salt Center
Fri 05:55:43 PM 42.8631 -112.0986 352° North 418 481 27,700 387 Climbing Salt Center
Fri 05:56:45 PM 42.9922 -112.1233 352° North 420 483 28,000 145 Climbing Salt Center
Fri 05:57:47 PM 43.1053 -112.1453 352° North 426 490 28,000  Level Salt Center
Fri 05:58:49 PM 43.2394 -112.1722 352° North 435 501 28,000  Level Salt Center
Fri 05:59:51 PM 43.3547 -112.1950 352° North 437 503 28,000  Level Salt Center
Fri 06:00:53 PM 43.4903 -112.2214 352° North 439 505 28,000  Level Salt Center
Fri 06:01:55 PM 43.6058 -112.2450 352° North 437 503 28,000  Level Salt Center
Fri 06:02:57 PM 43.7225 -112.2675 352° North 441 507 28,000  Level Salt Center
Fri 06:03:59 PM 43.8586 -112.2944 352° North 441 507 28,000  Level Salt Center
Fri 06:05:01 PM 43.9750 -112.3158 352° North 440 506 28,000  Level Salt Center
Fri 06:06:03 PM 44.1114 -112.3444 351° North 441 507 28,000  Level Salt Center
Fri 06:07:06 PM 44.2292 -112.3689 352° North 444 511 28,000  Level Salt Center
Fri 06:08:08 PM 44.3683 -112.3986 351° North 448 516 28,000  Level Salt Center
Fri 06:10:12 PM 44.6242 -112.4506 352° North 445 512 28,000  Level Salt Center
Fri 06:11:14 PM 44.7408 -112.4744 352° North 442 509 28,000 -1,419 Level Salt Center
Fri 06:13:18 PM 44.9917 -112.5275 351° North 439 505 23,600 -2,226 Descending Salt Center
Fri 06:14:20 PM 45.1008 -112.5508 351° North 421 484 21,100 -2,710 Descending Salt Center
Fri 06:15:22 PM 45.2217 -112.5750 352° North 400 460 18,000 -2,468 Descending Salt Center
Fri 06:16:24 PM 45.3178 -112.5956 351° North 377 434 16,000 -1,935 Descending Salt Center
Fri 06:17:26 PM 45.4211 -112.6172 352° North 346 398 14,000 -1,500 Descending Salt Center
Fri 06:18:28 PM 45.5067 -112.6339 352° North 334 384 12,900 -1,306 Descending Salt Center
Fri 06:19:30 PM 45.6006 -112.6358 359° North 314 361 11,300 -1,548 Descending Salt Center
Fri 06:21:00 PM 45.7691 -112.6897 347° North  Level FlightAware

Login

Don't have an account? Register now (free) for customized features, flight alerts, and more!